sensor_id;sensor_type;location;lat;lon;timestamp;pressure;altitude;pressure_sealevel;temperature;humidity
7026;BME280;3554;42.132;24.786;2022-07-29T00:00:05;99372.03;;;23.83;100.00
7026;BME280;3554;42.132;24.786;2022-07-29T00:02:32;99393.13;;;23.86;100.00
7026;BME280;3554;42.132;24.786;2022-07-29T00:04:59;99391.44;;;23.85;100.00
7026;BME280;3554;42.132;24.786;2022-07-29T00:07:26;99373.34;;;23.70;100.00
7026;BME280;3554;42.132;24.786;2022-07-29T00:09:53;99379.13;;;23.65;100.00
7026;BME280;3554;42.132;24.786;2022-07-29T00:12:20;99392.34;;;23.76;100.00
7026;BME280;3554;42.132;24.786;2022-07-29T00:14:49;99391.06;;;23.71;100.00
7026;BME280;3554;42.132;24.786;2022-07-29T00:17:16;99402.31;;;23.74;100.00
7026;BME280;3554;42.132;24.786;2022-07-29T00:19:42;99394.44;;;23.73;100.00
7026;BME280;3554;42.132;24.786;2022-07-29T00:22:09;99387.97;;;23.66;100.00
7026;BME280;3554;42.132;24.786;2022-07-29T00:24:36;99394.19;;;23.57;100.00
7026;BME280;3554;42.132;24.786;2022-07-29T00:27:03;99392.78;;;23.53;100.00
7026;BME280;3554;42.132;24.786;2022-07-29T00:29:30;99387.44;;;23.53;100.00
7026;BME280;3554;42.132;24.786;2022-07-29T00:31:58;99387.19;;;23.46;100.00
7026;BME280;3554;42.132;24.786;2022-07-29T00:34:25;99343.59;;;23.26;100.00
7026;BME280;3554;42.132;24.786;2022-07-29T00:37:10;99382.50;;;23.48;100.00
7026;BME280;3554;42.132;24.786;2022-07-29T00:39:36;99386.75;;;23.51;100.00
7026;BME280;3554;42.132;24.786;2022-07-29T00:42:04;99381.97;;;23.45;100.00
7026;BME280;3554;42.132;24.786;2022-07-29T00:44:36;99312.25;;;23.09;100.00
7026;BME280;3554;42.132;24.786;2022-07-29T00:47:05;99379.03;;;23.48;100.00
7026;BME280;3554;42.132;24.786;2022-07-29T00:49:32;99378.56;;;23.52;100.00
7026;BME280;3554;42.132;24.786;2022-07-29T00:52:00;99385.47;;;23.55;100.00
7026;BME280;3554;42.132;24.786;2022-07-29T00:54:27;99376.19;;;23.49;100.00
7026;BME280;3554;42.132;24.786;2022-07-29T00:56:55;99381.25;;;23.52;100.00
7026;BME280;3554;42.132;24.786;2022-07-29T00:59:23;99382.22;;;23.61;100.00
7026;BME280;3554;42.132;24.786;2022-07-29T01:01:49;99383.91;;;23.62;100.00
7026;BME280;3554;42.132;24.786;2022-07-29T01:04:19;99370.69;;;23.60;100.00
7026;BME280;3554;42.132;24.786;2022-07-29T01:06:47;99388.41;;;23.71;100.00
7026;BME280;3554;42.132;24.786;2022-07-29T01:09:14;99387.69;;;23.69;100.00
7026;BME280;3554;42.132;24.786;2022-07-29T01:11:42;99389.09;;;23.73;100.00
7026;BME280;3554;42.132;24.786;2022-07-29T01:14:09;99385.88;;;23.60;100.00
7026;BME280;3554;42.132;24.786;2022-07-29T01:16:42;99373.53;;;23.49;100.00
7026;BME280;3554;42.132;24.786;2022-07-29T01:19:25;99382.09;;;23.53;100.00
7026;BME280;3554;42.132;24.786;2022-07-29T01:21:59;99381.81;;;23.56;100.00
7026;BME280;3554;42.132;24.786;2022-07-29T01:24:42;99393.03;;;23.69;100.00
7026;BME280;3554;42.132;24.786;2022-07-29T01:27:25;99390.94;;;23.72;100.00
7026;BME280;3554;42.132;24.786;2022-07-29T01:29:58;99389.38;;;23.70;100.00
7026;BME280;3554;42.132;24.786;2022-07-29T01:32:28;99384.72;;;23.72;100.00
7026;BME280;3554;42.132;24.786;2022-07-29T01:34:58;99382.06;;;23.72;100.00
7026;BME280;3554;42.132;24.786;2022-07-29T01:37:31;99373.50;;;23.59;100.00
7026;BME280;3554;42.132;24.786;2022-07-29T01:40:02;99382.75;;;23.64;100.00
7026;BME280;3554;42.132;24.786;2022-07-29T01:42:34;99384.78;;;23.53;100.00
7026;BME280;3554;42.132;24.786;2022-07-29T01:45:10;99385.06;;;23.50;100.00
7026;BME280;3554;42.132;24.786;2022-07-29T01:47:41;99380.84;;;23.38;100.00
7026;BME280;3554;42.132;24.786;2022-07-29T01:50:14;99385.88;;;23.50;100.00
7026;BME280;3554;42.132;24.786;2022-07-29T01:52:46;99381.00;;;23.46;100.00
7026;BME280;3554;42.132;24.786;2022-07-29T01:55:15;99377.75;;;23.42;100.00
7026;BME280;3554;42.132;24.786;2022-07-29T01:57:46;99379.72;;;23.50;100.00
7026;BME280;3554;42.132;24.786;2022-07-29T02:00:16;99371.72;;;23.50;100.00
7026;BME280;3554;42.132;24.786;2022-07-29T02:02:44;99374.94;;;23.34;100.00
7026;BME280;3554;42.132;24.786;2022-07-29T02:05:15;99331.75;;;23.19;100.00
7026;BME280;3554;42.132;24.786;2022-07-29T02:07:44;99375.50;;;23.47;100.00
7026;BME280;3554;42.132;24.786;2022-07-29T02:10:14;99375.19;;;23.50;100.00
7026;BME280;3554;42.132;24.786;2022-07-29T02:12:44;99379.28;;;23.45;100.00
7026;BME280;3554;42.132;24.786;2022-07-29T02:15:14;99305.94;;;23.10;100.00
7026;BME280;3554;42.132;24.786;2022-07-29T02:17:46;99370.16;;;23.47;100.00
7026;BME280;3554;42.132;24.786;2022-07-29T02:20:16;99360.72;;;23.43;100.00
7026;BME280;3554;42.132;24.786;2022-07-29T02:22:44;99364.25;;;23.44;100.00
7026;BME280;3554;42.132;24.786;2022-07-29T02:25:12;99368.75;;;23.43;100.00
7026;BME280;3554;42.132;24.786;2022-07-29T02:27:41;99364.97;;;23.36;100.00
7026;BME280;3554;42.132;24.786;2022-07-29T02:30:09;99368.22;;;23.30;100.00
7026;BME280;3554;42.132;24.786;2022-07-29T02:32:39;99362.00;;;23.20;100.00
7026;BME280;3554;42.132;24.786;2022-07-29T02:35:08;99346.41;;;23.15;100.00
7026;BME280;3554;42.132;24.786;2022-07-29T02:37:36;99351.91;;;23.33;100.00
7026;BME280;3554;42.132;24.786;2022-07-29T02:40:07;99363.69;;;23.40;100.00
7026;BME280;3554;42.132;24.786;2022-07-29T02:42:36;99362.69;;;23.41;100.00
7026;BME280;3554;42.132;24.786;2022-07-29T02:45:04;99343.44;;;23.28;100.00
7026;BME280;3554;42.132;24.786;2022-07-29T02:47:35;99346.25;;;23.36;100.00
7026;BME280;3554;42.132;24.786;2022-07-29T02:50:07;99322.91;;;23.09;100.00
7026;BME280;3554;42.132;24.786;2022-07-29T02:52:40;99365.81;;;23.37;100.00
7026;BME280;3554;42.132;24.786;2022-07-29T02:55:14;99363.69;;;23.30;100.00
7026;BME280;3554;42.132;24.786;2022-07-29T02:57:44;99359.03;;;23.23;100.00
7026;BME280;3554;42.132;24.786;2022-07-29T03:00:14;99362.03;;;23.29;100.00
7026;BME280;3554;42.132;24.786;2022-07-29T03:02:45;99361.16;;;23.29;100.00
7026;BME280;3554;42.132;24.786;2022-07-29T03:05:18;99366.47;;;23.19;100.00
7026;BME280;3554;42.132;24.786;2022-07-29T03:07:51;99312.97;;;22.83;100.00
7026;BME280;3554;42.132;24.786;2022-07-29T03:10:18;99351.03;;;22.85;100.00
7026;BME280;3554;42.132;24.786;2022-07-29T03:12:45;99362.56;;;23.04;100.00
7026;BME280;3554;42.132;24.786;2022-07-29T03:15:13;99360.88;;;23.03;100.00
7026;BME280;3554;42.132;24.786;2022-07-29T03:17:40;99359.34;;;23.01;100.00
7026;BME280;3554;42.132;24.786;2022-07-29T03:20:09;99358.91;;;23.05;100.00
7026;BME280;3554;42.132;24.786;2022-07-29T03:22:40;99374.06;;;23.14;100.00
7026;BME280;3554;42.132;24.786;2022-07-29T03:25:09;99371.41;;;23.14;100.00
7026;BME280;3554;42.132;24.786;2022-07-29T03:27:38;99375.78;;;23.15;100.00
7026;BME280;3554;42.132;24.786;2022-07-29T03:30:06;99381.09;;;23.25;100.00
7026;BME280;3554;42.132;24.786;2022-07-29T03:32:33;99382.81;;;23.26;100.00
7026;BME280;3554;42.132;24.786;2022-07-29T03:35:00;99392.94;;;23.32;100.00
7026;BME280;3554;42.132;24.786;2022-07-29T03:37:27;99388.84;;;23.38;100.00
7026;BME280;3554;42.132;24.786;2022-07-29T03:39:57;99387.88;;;23.39;100.00
7026;BME280;3554;42.132;24.786;2022-07-29T03:42:26;99382.22;;;23.61;100.00
7026;BME280;3554;42.132;24.786;2022-07-29T03:44:55;99393.50;;;24.10;100.00
7026;BME280;3554;42.132;24.786;2022-07-29T03:47:25;99403.19;;;24.48;100.00
7026;BME280;3554;42.132;24.786;2022-07-29T03:49:57;99403.97;;;24.85;100.00
7026;BME280;3554;42.132;24.786;2022-07-29T03:52:26;99417.47;;;25.28;100.00
7026;BME280;3554;42.132;24.786;2022-07-29T03:54:53;99415.47;;;25.66;100.00
7026;BME280;3554;42.132;24.786;2022-07-29T03:57:24;99417.28;;;25.83;100.00
7026;BME280;3554;42.132;24.786;2022-07-29T03:59:52;99424.09;;;26.03;100.00
7026;BME280;3554;42.132;24.786;2022-07-29T04:02:19;99422.31;;;26.37;100.00
7026;BME280;3554;42.132;24.786;2022-07-29T04:04:48;99429.97;;;26.58;100.00
7026;BME280;3554;42.132;24.786;2022-07-29T04:07:15;99407.72;;;26.81;100.00
7026;BME280;3554;42.132;24.786;2022-07-29T04:09:42;99433.34;;;27.17;100.00
7026;BME280;3554;42.132;24.786;2022-07-29T04:12:09;99433.25;;;27.51;100.00
7026;BME280;3554;42.132;24.786;2022-07-29T04:14:37;99439.13;;;27.71;100.00
7026;BME280;3554;42.132;24.786;2022-07-29T04:17:05;99437.09;;;27.89;100.00
7026;BME280;3554;42.132;24.786;2022-07-29T04:19:32;99450.91;;;28.02;100.00
7026;BME280;3554;42.132;24.786;2022-07-29T04:21:59;99398.13;;;27.93;100.00
7026;BME280;3554;42.132;24.786;2022-07-29T04:24:27;99452.31;;;28.44;100.00
7026;BME280;3554;42.132;24.786;2022-07-29T04:26:54;99447.03;;;27.72;100.00
7026;BME280;3554;42.132;24.786;2022-07-29T04:29:20;99442.88;;;26.88;100.00
7026;BME280;3554;42.132;24.786;2022-07-29T04:31:49;99442.34;;;27.66;100.00
7026;BME280;3554;42.132;24.786;2022-07-29T04:34:15;99444.28;;;28.28;100.00
7026;BME280;3554;42.132;24.786;2022-07-29T04:36:42;99449.91;;;28.66;100.00
7026;BME280;3554;42.132;24.786;2022-07-29T04:39:09;99451.25;;;29.00;100.00
7026;BME280;3554;42.132;24.786;2022-07-29T04:41:36;99447.13;;;29.20;100.00
7026;BME280;3554;42.132;24.786;2022-07-29T04:44:04;99448.94;;;29.28;100.00
7026;BME280;3554;42.132;24.786;2022-07-29T04:46:31;99456.25;;;29.42;100.00
7026;BME280;3554;42.132;24.786;2022-07-29T04:48:59;99459.34;;;29.99;96.18
7026;BME280;3554;42.132;24.786;2022-07-29T04:51:26;99463.19;;;29.82;97.13
7026;BME280;3554;42.132;24.786;2022-07-29T04:53:53;99458.78;;;30.18;94.46
7026;BME280;3554;42.132;24.786;2022-07-29T04:56:20;99459.50;;;30.34;91.54
7026;BME280;3554;42.132;24.786;2022-07-29T04:58:46;99464.91;;;30.49;90.47
7026;BME280;3554;42.132;24.786;2022-07-29T05:01:13;99472.03;;;29.76;95.67
7026;BME280;3554;42.132;24.786;2022-07-29T05:03:40;99469.66;;;29.27;96.57
7026;BME280;3554;42.132;24.786;2022-07-29T05:06:09;99463.34;;;27.55;100.00
7026;BME280;3554;42.132;24.786;2022-07-29T05:08:36;99466.47;;;28.55;100.00
7026;BME280;3554;42.132;24.786;2022-07-29T05:11:03;99419.97;;;28.91;96.89
7026;BME280;3554;42.132;24.786;2022-07-29T05:13:30;99477.44;;;29.76;90.64
7026;BME280;3554;42.132;24.786;2022-07-29T05:15:57;99476.91;;;30.32;85.35
7026;BME280;3554;42.132;24.786;2022-07-29T05:18:24;99482.81;;;30.79;78.92
7026;BME280;3554;42.132;24.786;2022-07-29T05:20:51;99477.81;;;31.12;73.99
7026;BME280;3554;42.132;24.786;2022-07-29T05:23:19;99479.44;;;30.63;76.96
7026;BME280;3554;42.132;24.786;2022-07-29T05:25:46;99487.66;;;30.98;75.32
7026;BME280;3554;42.132;24.786;2022-07-29T05:28:13;99475.69;;;31.07;75.54
7026;BME280;3554;42.132;24.786;2022-07-29T05:30:40;99487.00;;;31.46;72.09
7026;BME280;3554;42.132;24.786;2022-07-29T05:33:07;99485.91;;;31.26;73.24
7026;BME280;3554;42.132;24.786;2022-07-29T05:35:34;99489.81;;;31.38;72.11
7026;BME280;3554;42.132;24.786;2022-07-29T05:38:02;99491.72;;;31.09;74.15
7026;BME280;3554;42.132;24.786;2022-07-29T05:40:30;99489.44;;;31.41;74.44
7026;BME280;3554;42.132;24.786;2022-07-29T05:42:57;99488.41;;;31.28;71.61
7026;BME280;3554;42.132;24.786;2022-07-29T05:45:24;99490.16;;;30.41;78.10
7026;BME280;3554;42.132;24.786;2022-07-29T05:47:52;99489.72;;;30.82;78.71
7026;BME280;3554;42.132;24.786;2022-07-29T05:50:18;99491.25;;;31.05;76.13
7026;BME280;3554;42.132;24.786;2022-07-29T05:52:45;99495.38;;;31.01;73.71
7026;BME280;3554;42.132;24.786;2022-07-29T05:55:12;99500.16;;;30.70;76.93
7026;BME280;3554;42.132;24.786;2022-07-29T05:57:40;99502.38;;;30.67;75.62
7026;BME280;3554;42.132;24.786;2022-07-29T06:00:10;99501.31;;;29.87;84.03
7026;BME280;3554;42.132;24.786;2022-07-29T06:02:37;99506.81;;;29.09;92.23
7026;BME280;3554;42.132;24.786;2022-07-29T06:05:04;99505.19;;;29.62;89.68
7026;BME280;3554;42.132;24.786;2022-07-29T06:07:31;99503.44;;;29.91;87.05
7026;BME280;3554;42.132;24.786;2022-07-29T06:09:58;99496.72;;;29.65;92.30
7026;BME280;3554;42.132;24.786;2022-07-29T06:12:24;99503.41;;;30.36;90.40
7026;BME280;3554;42.132;24.786;2022-07-29T06:14:53;99504.81;;;30.62;81.42
7026;BME280;3554;42.132;24.786;2022-07-29T06:17:19;99507.91;;;29.84;88.97
7026;BME280;3554;42.132;24.786;2022-07-29T06:19:46;99501.06;;;30.48;84.55
7026;BME280;3554;42.132;24.786;2022-07-29T06:22:15;99499.00;;;29.98;87.98
7026;BME280;3554;42.132;24.786;2022-07-29T06:24:42;99502.88;;;29.81;87.49
7026;BME280;3554;42.132;24.786;2022-07-29T06:27:09;99496.72;;;29.87;87.88
7026;BME280;3554;42.132;24.786;2022-07-29T06:29:36;99502.25;;;29.94;86.08
7026;BME280;3554;42.132;24.786;2022-07-29T06:32:05;99497.91;;;30.07;86.08
7026;BME280;3554;42.132;24.786;2022-07-29T06:34:32;99497.03;;;29.70;92.02
7026;BME280;3554;42.132;24.786;2022-07-29T06:36:59;99501.34;;;29.79;87.86
7026;BME280;3554;42.132;24.786;2022-07-29T06:39:25;99498.06;;;29.69;90.94
7026;BME280;3554;42.132;24.786;2022-07-29T06:41:53;99498.38;;;30.11;87.03
7026;BME280;3554;42.132;24.786;2022-07-29T06:44:20;99503.75;;;30.48;87.83
7026;BME280;3554;42.132;24.786;2022-07-29T06:46:47;99499.03;;;30.94;83.82
7026;BME280;3554;42.132;24.786;2022-07-29T06:49:17;99493.16;;;31.26;79.85
7026;BME280;3554;42.132;24.786;2022-07-29T06:51:43;99491.25;;;31.56;76.64
7026;BME280;3554;42.132;24.786;2022-07-29T06:54:10;99488.59;;;31.62;72.72
7026;BME280;3554;42.132;24.786;2022-07-29T06:56:37;99494.34;;;31.74;70.50
7026;BME280;3554;42.132;24.786;2022-07-29T06:59:08;99484.78;;;31.21;77.13
7026;BME280;3554;42.132;24.786;2022-07-29T07:01:36;99492.06;;;30.85;75.85
7026;BME280;3554;42.132;24.786;2022-07-29T07:04:03;99461.91;;;31.02;80.53
7026;BME280;3554;42.132;24.786;2022-07-29T07:06:31;99427.75;;;31.01;73.80
7026;BME280;3554;42.132;24.786;2022-07-29T07:08:58;99485.63;;;31.36;72.45
7026;BME280;3554;42.132;24.786;2022-07-29T07:11:25;99484.94;;;31.70;73.56
7026;BME280;3554;42.132;24.786;2022-07-29T07:13:53;99472.81;;;31.66;71.45
7026;BME280;3554;42.132;24.786;2022-07-29T07:16:20;99484.53;;;31.73;70.33
7026;BME280;3554;42.132;24.786;2022-07-29T07:18:46;99472.25;;;31.13;77.00
7026;BME280;3554;42.132;24.786;2022-07-29T07:21:13;99473.84;;;30.93;75.79
7026;BME280;3554;42.132;24.786;2022-07-29T07:23:41;99469.97;;;30.81;76.36
7026;BME280;3554;42.132;24.786;2022-07-29T07:26:08;99467.97;;;30.75;81.81
7026;BME280;3554;42.132;24.786;2022-07-29T07:28:36;99464.69;;;30.94;74.75
7026;BME280;3554;42.132;24.786;2022-07-29T07:31:02;99481.88;;;31.22;69.81
7026;BME280;3554;42.132;24.786;2022-07-29T07:33:29;99484.44;;;31.60;64.64
7026;BME280;3554;42.132;24.786;2022-07-29T07:35:56;99477.50;;;31.78;58.25
7026;BME280;3554;42.132;24.786;2022-07-29T07:38:23;99489.97;;;31.94;58.33
7026;BME280;3554;42.132;24.786;2022-07-29T07:40:53;99480.22;;;31.36;64.86
7026;BME280;3554;42.132;24.786;2022-07-29T07:43:20;99483.19;;;31.62;66.12
7026;BME280;3554;42.132;24.786;2022-07-29T07:45:47;99480.28;;;32.06;62.51
7026;BME280;3554;42.132;24.786;2022-07-29T07:48:16;99481.53;;;32.31;60.01
7026;BME280;3554;42.132;24.786;2022-07-29T07:50:44;99483.22;;;32.38;58.05
7026;BME280;3554;42.132;24.786;2022-07-29T07:53:11;99475.72;;;32.40;55.19
7026;BME280;3554;42.132;24.786;2022-07-29T07:55:39;99461.78;;;31.88;56.61
7026;BME280;3554;42.132;24.786;2022-07-29T07:58:08;99474.56;;;32.22;58.06
7026;BME280;3554;42.132;24.786;2022-07-29T08:00:35;99473.75;;;32.28;57.74
7026;BME280;3554;42.132;24.786;2022-07-29T08:03:02;99471.06;;;32.00;56.19
7026;BME280;3554;42.132;24.786;2022-07-29T08:05:30;99453.88;;;32.14;53.19
7026;BME280;3554;42.132;24.786;2022-07-29T08:07:57;99474.13;;;32.18;49.39
7026;BME280;3554;42.132;24.786;2022-07-29T08:10:24;99463.16;;;31.99;50.66
7026;BME280;3554;42.132;24.786;2022-07-29T08:13:10;99473.53;;;32.23;50.65
7026;BME280;3554;42.132;24.786;2022-07-29T08:15:39;99460.75;;;32.17;52.07
7026;BME280;3554;42.132;24.786;2022-07-29T08:18:06;99458.81;;;32.38;46.72
7026;BME280;3554;42.132;24.786;2022-07-29T08:20:33;99477.03;;;32.44;47.03
7026;BME280;3554;42.132;24.786;2022-07-29T08:23:01;99475.22;;;32.51;45.23
7026;BME280;3554;42.132;24.786;2022-07-29T08:25:28;99480.50;;;32.66;46.07
7026;BME280;3554;42.132;24.786;2022-07-29T08:27:55;99480.97;;;32.14;47.71
7026;BME280;3554;42.132;24.786;2022-07-29T08:30:23;99477.16;;;32.36;47.83
7026;BME280;3554;42.132;24.786;2022-07-29T08:32:50;99458.31;;;32.56;49.72
7026;BME280;3554;42.132;24.786;2022-07-29T08:35:18;99469.28;;;32.76;44.59
7026;BME280;3554;42.132;24.786;2022-07-29T08:37:45;99477.91;;;31.75;46.34
7026;BME280;3554;42.132;24.786;2022-07-29T08:40:12;99466.22;;;31.96;44.00
7026;BME280;3554;42.132;24.786;2022-07-29T08:42:39;99465.56;;;32.15;44.52
7026;BME280;3554;42.132;24.786;2022-07-29T08:45:07;99449.81;;;32.31;43.75
7026;BME280;3554;42.132;24.786;2022-07-29T08:47:38;99445.03;;;32.33;42.28
7026;BME280;3554;42.132;24.786;2022-07-29T08:50:06;99451.09;;;32.08;44.59
7026;BME280;3554;42.132;24.786;2022-07-29T08:52:35;99451.41;;;32.19;44.19
7026;BME280;3554;42.132;24.786;2022-07-29T08:55:04;99444.16;;;31.78;45.99
7026;BME280;3554;42.132;24.786;2022-07-29T08:57:32;99436.47;;;31.81;46.42
7026;BME280;3554;42.132;24.786;2022-07-29T09:00:00;99444.47;;;32.10;46.19
7026;BME280;3554;42.132;24.786;2022-07-29T09:02:29;99431.69;;;32.04;46.62
7026;BME280;3554;42.132;24.786;2022-07-29T09:05:01;99434.06;;;31.65;45.84
7026;BME280;3554;42.132;24.786;2022-07-29T09:07:28;99428.91;;;31.91;46.90
7026;BME280;3554;42.132;24.786;2022-07-29T09:09:55;99426.91;;;32.34;46.18
7026;BME280;3554;42.132;24.786;2022-07-29T09:12:22;99425.84;;;32.01;40.97
7026;BME280;3554;42.132;24.786;2022-07-29T09:14:50;99416.72;;;32.36;40.55
7026;BME280;3554;42.132;24.786;2022-07-29T09:17:17;99432.78;;;32.78;39.98
7026;BME280;3554;42.132;24.786;2022-07-29T09:19:45;99430.59;;;32.54;39.05
7026;BME280;3554;42.132;24.786;2022-07-29T09:22:28;99423.47;;;32.19;40.36
7026;BME280;3554;42.132;24.786;2022-07-29T09:24:55;99427.53;;;32.02;40.92
7026;BME280;3554;42.132;24.786;2022-07-29T09:27:23;99419.22;;;32.10;40.64
7026;BME280;3554;42.132;24.786;2022-07-29T09:29:58;99423.25;;;32.41;39.70
7026;BME280;3554;42.132;24.786;2022-07-29T09:32:25;99417.06;;;32.54;40.90
7026;BME280;3554;42.132;24.786;2022-07-29T09:35:14;99413.59;;;32.73;40.55
7026;BME280;3554;42.132;24.786;2022-07-29T09:37:42;99421.50;;;32.40;39.82
7026;BME280;3554;42.132;24.786;2022-07-29T09:40:13;99413.75;;;32.31;39.74
7026;BME280;3554;42.132;24.786;2022-07-29T09:42:41;99405.63;;;32.31;39.64
7026;BME280;3554;42.132;24.786;2022-07-29T09:45:09;99406.06;;;32.34;37.83
7026;BME280;3554;42.132;24.786;2022-07-29T09:47:44;99414.25;;;32.41;37.97
7026;BME280;3554;42.132;24.786;2022-07-29T09:50:14;99409.34;;;32.23;37.61
7026;BME280;3554;42.132;24.786;2022-07-29T09:52:48;99409.34;;;32.23;38.45
7026;BME280;3554;42.132;24.786;2022-07-29T09:55:15;99401.28;;;32.02;38.35
7026;BME280;3554;42.132;24.786;2022-07-29T09:57:42;99401.34;;;32.15;37.58
7026;BME280;3554;42.132;24.786;2022-07-29T10:00:11;99394.63;;;32.05;37.98
7026;BME280;3554;42.132;24.786;2022-07-29T10:02:41;99398.75;;;32.01;39.45
7026;BME280;3554;42.132;24.786;2022-07-29T10:05:17;99388.81;;;32.42;37.58
7026;BME280;3554;42.132;24.786;2022-07-29T10:07:47;99405.31;;;32.47;37.36
7026;BME280;3554;42.132;24.786;2022-07-29T10:10:22;99403.16;;;32.36;38.29
7026;BME280;3554;42.132;24.786;2022-07-29T10:12:51;99398.53;;;32.36;38.23
7026;BME280;3554;42.132;24.786;2022-07-29T10:15:18;99402.75;;;32.39;38.24
7026;BME280;3554;42.132;24.786;2022-07-29T10:17:47;99388.00;;;32.41;38.09
7026;BME280;3554;42.132;24.786;2022-07-29T10:20:15;99390.44;;;32.77;37.46
7026;BME280;3554;42.132;24.786;2022-07-29T10:22:42;99389.59;;;32.77;37.49
7026;BME280;3554;42.132;24.786;2022-07-29T10:25:11;99387.31;;;32.80;38.47
7026;BME280;3554;42.132;24.786;2022-07-29T10:27:38;99399.53;;;32.63;38.29
7026;BME280;3554;42.132;24.786;2022-07-29T10:30:06;99395.34;;;32.54;39.67
7026;BME280;3554;42.132;24.786;2022-07-29T10:32:46;99392.69;;;32.67;39.21
7026;BME280;3554;42.132;24.786;2022-07-29T10:35:26;99384.53;;;32.61;39.15
7026;BME280;3554;42.132;24.786;2022-07-29T10:38:17;99386.25;;;32.68;38.85
7026;BME280;3554;42.132;24.786;2022-07-29T10:40:59;99349.50;;;32.72;38.25
7026;BME280;3554;42.132;24.786;2022-07-29T10:43:47;99370.53;;;33.11;38.11
7026;BME280;3554;42.132;24.786;2022-07-29T10:46:15;99364.69;;;33.07;38.86
7026;BME280;3554;42.132;24.786;2022-07-29T10:49:12;99359.91;;;33.35;38.54
7026;BME280;3554;42.132;24.786;2022-07-29T10:52:01;99353.41;;;33.17;39.43
7026;BME280;3554;42.132;24.786;2022-07-29T10:54:46;99350.78;;;32.70;40.09
7026;BME280;3554;42.132;24.786;2022-07-29T10:57:22;99349.44;;;32.93;39.57
7026;BME280;3554;42.132;24.786;2022-07-29T11:00:30;99343.00;;;32.53;40.05
7026;BME280;3554;42.132;24.786;2022-07-29T11:02:57;99342.13;;;33.07;40.74
7026;BME280;3554;42.132;24.786;2022-07-29T11:05:25;99338.81;;;33.37;40.34
7026;BME280;3554;42.132;24.786;2022-07-29T11:08:17;99330.88;;;33.29;40.22
7026;BME280;3554;42.132;24.786;2022-07-29T11:10:45;99329.63;;;33.65;41.45
7026;BME280;3554;42.132;24.786;2022-07-29T11:13:44;99342.59;;;33.69;39.42
7026;BME280;3554;42.132;24.786;2022-07-29T11:16:12;99327.09;;;33.24;40.04
7026;BME280;3554;42.132;24.786;2022-07-29T11:21:41;99279.44;;;32.76;41.44
7026;BME280;3554;42.132;24.786;2022-07-29T11:24:12;99323.75;;;33.22;41.33
7026;BME280;3554;42.132;24.786;2022-07-29T11:26:39;99328.72;;;32.92;40.92
7026;BME280;3554;42.132;24.786;2022-07-29T11:29:16;99319.94;;;32.84;40.73
7026;BME280;3554;42.132;24.786;2022-07-29T11:31:46;99311.88;;;33.16;41.14
7026;BME280;3554;42.132;24.786;2022-07-29T11:34:18;99311.03;;;33.42;40.87
7026;BME280;3554;42.132;24.786;2022-07-29T11:37:22;99308.97;;;33.37;39.65
7026;BME280;3554;42.132;24.786;2022-07-29T11:40:14;99310.19;;;33.09;40.64
7026;BME280;3554;42.132;24.786;2022-07-29T11:42:43;99303.94;;;33.21;41.23
7026;BME280;3554;42.132;24.786;2022-07-29T11:45:14;99302.06;;;33.15;40.14
7026;BME280;3554;42.132;24.786;2022-07-29T11:47:48;99286.19;;;32.99;40.60
7026;BME280;3554;42.132;24.786;2022-07-29T11:50:17;99292.88;;;33.10;40.45
7026;BME280;3554;42.132;24.786;2022-07-29T11:52:53;99281.81;;;32.98;39.89
7026;BME280;3554;42.132;24.786;2022-07-29T11:55:21;99271.53;;;32.81;40.64
7026;BME280;3554;42.132;24.786;2022-07-29T11:57:50;99279.09;;;33.11;40.44
7026;BME280;3554;42.132;24.786;2022-07-29T12:00:28;99244.03;;;32.97;39.16
7026;BME280;3554;42.132;24.786;2022-07-29T12:02:56;99231.31;;;33.04;39.18
7026;BME280;3554;42.132;24.786;2022-07-29T12:05:35;99283.91;;;33.48;39.33
7026;BME280;3554;42.132;24.786;2022-07-29T12:08:11;99269.47;;;33.35;39.42
7026;BME280;3554;42.132;24.786;2022-07-29T12:10:40;99277.00;;;33.39;38.75
7026;BME280;3554;42.132;24.786;2022-07-29T12:13:08;99277.03;;;33.59;39.05
7026;BME280;3554;42.132;24.786;2022-07-29T12:15:37;99241.91;;;33.38;38.53
7026;BME280;3554;42.132;24.786;2022-07-29T12:18:11;99269.47;;;33.41;38.64
7026;BME280;3554;42.132;24.786;2022-07-29T12:20:38;99260.94;;;33.51;38.26
7026;BME280;3554;42.132;24.786;2022-07-29T12:23:06;99260.50;;;33.61;37.76
7026;BME280;3554;42.132;24.786;2022-07-29T12:25:35;99262.34;;;33.67;38.39
7026;BME280;3554;42.132;24.786;2022-07-29T12:28:04;99263.22;;;33.67;37.74
7026;BME280;3554;42.132;24.786;2022-07-29T12:30:41;99243.19;;;33.55;38.37
7026;BME280;3554;42.132;24.786;2022-07-29T12:33:13;99247.69;;;33.87;37.68
7026;BME280;3554;42.132;24.786;2022-07-29T12:35:42;99255.63;;;33.95;37.91
7026;BME280;3554;42.132;24.786;2022-07-29T12:38:10;99254.78;;;33.88;37.85
7026;BME280;3554;42.132;24.786;2022-07-29T12:40:38;99256.69;;;33.81;37.84
7026;BME280;3554;42.132;24.786;2022-07-29T12:43:09;99246.25;;;33.78;38.61
7026;BME280;3554;42.132;24.786;2022-07-29T12:45:38;99242.28;;;33.74;37.71
7026;BME280;3554;42.132;24.786;2022-07-29T12:48:06;99247.72;;;33.74;38.98
7026;BME280;3554;42.132;24.786;2022-07-29T12:50:35;99242.72;;;33.65;38.34
7026;BME280;3554;42.132;24.786;2022-07-29T12:53:09;99236.44;;;33.71;38.68
7026;BME280;3554;42.132;24.786;2022-07-29T12:55:41;99236.47;;;33.58;38.17
7026;BME280;3554;42.132;24.786;2022-07-29T12:58:08;99220.78;;;33.73;38.30
7026;BME280;3554;42.132;24.786;2022-07-29T13:00:36;99213.22;;;33.81;37.78
7026;BME280;3554;42.132;24.786;2022-07-29T13:03:04;99221.16;;;33.89;37.99
7026;BME280;3554;42.132;24.786;2022-07-29T13:05:41;99208.59;;;33.88;38.08
7026;BME280;3554;42.132;24.786;2022-07-29T13:08:12;99217.22;;;33.79;37.92
7026;BME280;3554;42.132;24.786;2022-07-29T13:10:40;99222.47;;;33.67;38.34
7026;BME280;3554;42.132;24.786;2022-07-29T13:13:09;99220.78;;;33.73;38.18
7026;BME280;3554;42.132;24.786;2022-07-29T13:15:37;99214.88;;;33.95;38.10
7026;BME280;3554;42.132;24.786;2022-07-29T13:18:26;99209.75;;;34.18;38.48
7026;BME280;3554;42.132;24.786;2022-07-29T13:20:53;99211.09;;;34.40;37.63
7026;BME280;3554;42.132;24.786;2022-07-29T13:23:20;99158.94;;;34.19;37.50